Ketchikan International Airport
PAKT : rendu visible

Aérodrome :











RETROUVEZ-NOUS SUR...

 
LOGIN :

S'inscrire | Disclaimer

   EN    FR    IT 

 









Légende :    VFR   VFR Marginal   IFR   IFR Intensif   IFR Très Intensif
Visi : 
Plafond : 
>= 8 km
>= 3000ft
5 à 8 km
1000 à 3000 ft
1500m à 5 km
500 à 1000 ft
800 à 1500m
200 à 500 ft
< 800m
< 200 ft
Symboles :   Orages  Brouillard  Fortes neiges  Fortes précipitations  Vent > 20 kt






- Altitude de l'aérodrome : 89 ft
- Code IATA : KTN


PAKT - Ketchikan International

DERNIER METAR :
  • 271753Z 22003KT 10SM FEW010 SCT040 BKN080 08/08 A3007 RMK AO2 SLP185 HARBOR WND VRB03KT T00780078 10078 20067 51012

METARs EXPIRÉS :
  • 271653Z 29003KT 10SM FEW010 SCT035 BKN055 07/07 A3006 RMK AO2 SLP181 HARBOR WND VRB03KT T00720072
  • 271553Z 29003KT 10SM FEW002 SCT018 OVC040 07/07 A3005 RMK AO2 SLP178 HARBOR WIND 00000KT T00720072
  • 271453Z 00000KT 10SM SCT025 OVC032 07/07 A3004 RMK HARBOR WIND 00000KT

TAF PAKT
Valide du 27 à 18h jusqu'au 28 à 18h UTC


271725Z 2718/2818 VRB03KT P6SM FEW002 SCT025 OVC050
FM272000 VRB03KT P6SM VCSH SCT020 OVC050
TEMPO 2810/2814 2SM BR BKN025 AMD LTD TO CLD VIS AND WIND 2806/2815
FIR PAZA / Amérique du Nord



MET'MAP, la Météo Aéronautique d'un coup d'oeil ! - Copyright ORBIFLY Décembre 2007 - Disclaimer

ORBIFLY MET'MAP TEAM :

Programmation & Développement : Alexandra Zaïnal
Sur une idée originale de : Baudouin d'Aumeries
Assistance à la programmation : Marc-Olivier Méhu
Soutien technique & logistique : Manuel Goepfert

Contact : metmap@orbifly.com




SOURCES & CREDITS :

   NOAA       Earth
Advisory